Terminal Aerodrome Forecast
Issued by NWS Mt. Holly, NJ

Home | Current Version | Previous Version | Text Only | Print | Product List | Glossary On
Versions: 1 2 3 4 5 6 7 8 9 10 11 12 13 14 15 16 17 18 19 20 21 22 23 24 25 26 27 28 29 30 31 32 33 34 35 36 37 38 39 40 41 42 43 44 45 46 47
000
FTAK31 PANC 301734
TAFABE
TAF
PABE 301734Z 3018/3118 31007KT P6SM SCT015
      TEMPO 3018/3021 BKN015
     FM302200 01008KT P6SM SCT035
     FM310600 03012KT P6SM SKC
     FM311200 03018KT P6SM BKN200=

USA.gov is the U.S. government's official web portal to all federal, state and local government web resources and services.